createdAt,value
2022-11-03T00:04:14.196Z,4.50
2022-11-03T00:17:21.580Z,4.13
2022-11-03T00:20:11.381Z,4.23
2022-11-03T00:25:38.969Z,4.07
2022-11-03T00:28:07.324Z,3.67
2022-11-03T00:30:35.698Z,4.30
2022-11-03T00:33:03.972Z,4.03
2022-11-03T00:35:32.487Z,3.87
2022-11-03T00:38:02.178Z,3.63
2022-11-03T00:40:30.325Z,4.43
2022-11-03T00:42:58.414Z,4.67
2022-11-03T00:45:26.580Z,3.50
2022-11-03T00:48:14.158Z,3.77
2022-11-03T00:50:42.758Z,3.37
2022-11-03T00:53:12.432Z,3.67
2022-11-03T00:55:40.715Z,3.63
2022-11-03T00:58:08.962Z,4.10
2022-11-03T01:00:37.171Z,3.57
2022-11-03T01:03:05.690Z,3.57
2022-11-03T01:05:51.279Z,3.63
2022-11-03T01:08:22.494Z,3.27
2022-11-03T01:11:12.237Z,3.57
2022-11-03T01:13:41.007Z,3.30
2022-11-03T01:16:09.300Z,3.60
2022-11-03T01:18:37.373Z,3.40
2022-11-03T01:21:05.837Z,2.73
2022-11-03T01:23:36.576Z,2.70
2022-11-03T01:26:06.251Z,3.30
2022-11-03T01:28:35.255Z,3.33
2022-11-03T01:31:06.923Z,3.20
2022-11-03T01:33:35.021Z,4.03
2022-11-03T01:36:04.016Z,3.00
2022-11-03T01:38:35.697Z,3.43
2022-11-03T01:41:05.783Z,6.47
2022-11-03T01:43:34.214Z,3.63
2022-11-03T01:46:07.837Z,2.70
2022-11-03T01:48:37.307Z,2.97
2022-11-03T01:51:08.673Z,2.87
2022-11-03T01:53:43.031Z,3.07
2022-11-03T01:56:14.470Z,3.37
2022-11-03T01:58:45.542Z,5.13
2022-11-03T02:01:14.306Z,2.70
2022-11-03T02:04:01.396Z,2.50
2022-11-03T02:06:31.531Z,2.83
2022-11-03T02:09:16.506Z,3.50
2022-11-03T02:12:30.217Z,2.83
2022-11-03T02:15:02.086Z,3.50
2022-11-03T02:17:32.543Z,3.40
2022-11-03T02:20:04.128Z,2.90
2022-11-03T02:22:53.212Z,2.83
2022-11-03T02:29:50.039Z,3.03
2022-11-03T02:32:24.079Z,3.07
2022-11-03T02:35:03.778Z,2.80
2022-11-03T02:37:36.824Z,2.67
2022-11-03T02:40:09.069Z,2.47
2022-11-03T02:42:54.654Z,2.53
2022-11-03T02:45:32.879Z,2.00
2022-11-03T02:48:03.926Z,2.30
2022-11-03T02:50:36.993Z,2.17
2022-11-03T02:53:05.519Z,2.40
2022-11-03T02:55:54.857Z,2.17
2022-11-03T02:58:31.879Z,2.60
2022-11-03T03:01:05.094Z,2.37
2022-11-03T03:03:40.522Z,2.33
2022-11-03T03:06:12.131Z,2.60
2022-11-03T03:08:47.691Z,2.47
2022-11-03T03:11:16.136Z,2.47
2022-11-03T03:13:49.128Z,2.57
2022-11-03T03:16:26.188Z,2.00
2022-11-03T03:19:09.650Z,2.33
2022-11-03T03:21:46.075Z,2.20
2022-11-03T03:24:18.318Z,2.03
2022-11-03T03:26:49.852Z,2.30
2022-11-03T03:29:23.870Z,2.13
2022-11-03T03:31:58.873Z,2.23
2022-11-03T03:34:35.041Z,2.20
2022-11-03T03:37:06.638Z,1.53
2022-11-03T03:39:38.981Z,1.90
2022-11-03T03:42:11.609Z,1.80
2022-11-03T03:44:42.038Z,2.43
2022-11-03T03:47:16.698Z,2.20
2022-11-03T03:49:45.310Z,1.53
2022-11-03T03:52:13.800Z,2.10
2022-11-03T03:54:41.784Z,2.20
2022-11-03T03:57:15.904Z,2.03
2022-11-03T03:59:44.185Z,1.90
2022-11-03T04:02:14.497Z,2.40
2022-11-03T04:04:42.786Z,2.03
2022-11-03T04:07:28.761Z,1.67
2022-11-03T04:09:56.918Z,2.00
2022-11-03T04:12:42.908Z,1.83
2022-11-03T04:15:46.003Z,2.20
2022-11-03T04:18:32.930Z,2.40
2022-11-03T04:21:27.092Z,2.40
2022-11-03T04:23:55.101Z,2.20
2022-11-03T04:26:24.164Z,2.07
2022-11-03T04:28:54.553Z,2.23
2022-11-03T04:31:23.492Z,2.90
2022-11-03T04:33:53.128Z,1.90
2022-11-03T04:36:23.693Z,2.23
2022-11-03T04:38:53.230Z,2.30
2022-11-03T04:41:23.346Z,1.87
2022-11-03T04:43:52.776Z,2.20
2022-11-03T04:46:27.310Z,1.80
2022-11-03T04:49:00.350Z,2.67
2022-11-03T04:51:32.448Z,2.33
2022-11-03T04:54:03.965Z,2.23
2022-11-03T04:56:32.037Z,2.47
2022-11-03T04:59:00.110Z,2.40
2022-11-03T05:01:29.333Z,2.00
2022-11-03T05:03:59.009Z,2.80
2022-11-03T05:06:29.443Z,2.37
2022-11-03T05:09:00.416Z,2.07
2022-11-03T05:11:32.348Z,2.13
2022-11-03T05:14:03.075Z,2.57
2022-11-03T05:16:32.190Z,1.90
2022-11-03T05:19:01.990Z,1.97
2022-11-03T05:21:30.189Z,2.70
2022-11-03T05:24:04.068Z,2.30
2022-11-03T05:26:35.424Z,2.40
2022-11-03T05:29:05.361Z,2.20
2022-11-03T05:31:36.631Z,2.20
2022-11-03T05:34:23.254Z,2.03
2022-11-03T05:36:51.153Z,2.50
2022-11-03T05:39:29.519Z,2.40
2022-11-03T05:41:59.683Z,1.63
2022-11-03T05:44:34.130Z,2.23
2022-11-03T05:47:05.957Z,2.80
2022-11-03T05:49:37.764Z,3.60
2022-11-03T05:52:07.277Z,2.13
2022-11-03T05:54:36.260Z,2.30
2022-11-03T05:57:11.987Z,2.80
2022-11-03T05:59:39.972Z,3.00
2022-11-03T06:02:28.005Z,2.20
2022-11-03T06:04:57.560Z,1.80
2022-11-03T06:07:28.269Z,2.33
2022-11-03T06:09:56.568Z,1.93
2022-11-03T06:12:26.040Z,1.83
2022-11-03T06:14:54.594Z,1.70
2022-11-03T06:17:24.872Z,2.07
2022-11-03T06:19:55.885Z,2.00
2022-11-03T06:22:29.029Z,2.13
2022-11-03T06:25:00.423Z,1.90
2022-11-03T06:27:32.157Z,2.13
2022-11-03T06:30:04.699Z,1.67
2022-11-03T06:32:35.062Z,1.43
2022-11-03T06:35:03.105Z,1.33
2022-11-03T06:37:34.850Z,2.47
2022-11-03T06:40:24.902Z,1.50
2022-11-03T06:42:54.408Z,1.50
2022-11-03T06:45:25.501Z,1.57
2022-11-03T06:47:55.130Z,1.23
2022-11-03T06:50:26.459Z,1.47
2022-11-03T06:52:57.299Z,1.67
2022-11-03T06:55:27.736Z,1.20
2022-11-03T06:58:01.454Z,1.80
2022-11-03T07:00:34.225Z,1.47
2022-11-03T07:03:10.451Z,1.43
2022-11-03T07:05:40.113Z,1.87
2022-11-03T07:08:26.544Z,1.80
2022-11-03T07:11:05.529Z,1.67
2022-11-03T07:13:35.907Z,1.80
2022-11-03T07:16:04.653Z,1.20
2022-11-03T07:18:39.151Z,1.23
2022-11-03T07:21:27.205Z,1.10
2022-11-03T07:24:00.909Z,1.20
2022-11-03T07:26:29.396Z,1.20
2022-11-03T07:29:04.506Z,2.03
2022-11-03T08:13:23.560Z,2.10
2022-11-03T08:15:57.761Z,2.60
2022-11-03T08:19:25.986Z,11.23
2022-11-03T08:21:56.934Z,16.90
2022-11-03T08:24:38.989Z,2.13
2022-11-03T08:32:56.655Z,1.90
2022-11-03T08:35:30.105Z,1.53
2022-11-03T08:38:01.401Z,1.27
2022-11-03T08:40:29.953Z,2.27
2022-11-03T08:42:58.596Z,1.50
2022-11-03T08:45:27.874Z,1.80
2022-11-03T08:47:57.913Z,4.47
2022-11-03T08:50:26.081Z,1.40
2022-11-03T08:52:54.939Z,1.40
2022-11-03T08:55:22.934Z,1.53
2022-11-03T08:57:51.179Z,1.90
2022-11-03T09:00:19.804Z,1.90
2022-11-03T09:02:48.772Z,1.63
2022-11-03T09:05:18.607Z,1.80
2022-11-03T09:10:41.361Z,1.20
2022-11-03T09:13:11.057Z,1.87
2022-11-03T09:15:39.712Z,1.90
2022-11-03T09:18:09.492Z,2.00
2022-11-03T09:20:40.176Z,2.53
2022-11-03T09:23:20.072Z,2.30
2022-11-03T09:25:48.434Z,2.20
2022-11-03T09:28:16.824Z,2.53
2022-11-03T09:31:45.084Z,4.17
2022-11-03T09:34:26.148Z,3.30
2022-11-03T09:36:55.942Z,4.27
2022-11-03T09:39:24.136Z,2.57
2022-11-03T09:41:58.479Z,2.50
2022-11-03T09:44:44.540Z,2.17
2022-11-03T09:47:29.810Z,3.07
2022-11-03T09:50:08.456Z,1.97
2022-11-03T09:52:59.435Z,2.30
2022-11-03T09:55:30.259Z,2.30
2022-11-03T09:58:02.471Z,2.50
2022-11-03T10:00:30.684Z,1.87
2022-11-03T10:02:58.894Z,2.30
2022-11-03T10:05:32.588Z,3.07
2022-11-03T10:08:06.961Z,2.40
2022-11-03T10:10:38.752Z,2.40
2022-11-03T10:13:09.808Z,2.00
2022-11-03T10:15:38.295Z,1.60
2022-11-03T10:18:08.996Z,0.90
2022-11-03T10:20:37.283Z,0.60
2022-11-03T10:23:07.182Z,0.87
2022-11-03T10:25:37.901Z,1.40
2022-11-03T10:28:17.319Z,1.30
2022-11-03T10:33:42.892Z,0.70
2022-11-03T10:36:25.489Z,0.50
2022-11-03T10:38:55.638Z,0.50
2022-11-03T10:41:24.792Z,0.77
2022-11-03T10:44:08.257Z,1.37
2022-11-03T10:46:50.344Z,1.23
2022-11-03T10:49:21.378Z,1.07
2022-11-03T10:51:51.747Z,1.43
2022-11-03T10:54:23.647Z,1.67
2022-11-03T10:56:53.198Z,2.33
2022-11-03T10:59:23.632Z,4.17
2022-11-03T11:01:52.021Z,6.00
2022-11-03T11:04:22.001Z,11.37
2022-11-03T11:06:50.335Z,2.57
2022-11-03T11:09:25.592Z,2.40
2022-11-03T11:12:04.755Z,4.93
2022-11-03T11:14:39.476Z,3.67
2022-11-03T11:17:07.905Z,4.13
2022-11-03T11:20:09.412Z,2.23
2022-11-03T11:22:37.589Z,1.17
2022-11-03T11:25:07.462Z,1.37
2022-11-03T11:28:00.048Z,1.43
2022-11-03T11:30:58.308Z,1.70
2022-11-03T11:33:27.454Z,0.83
2022-11-03T11:36:28.090Z,1.03
2022-11-03T11:39:00.505Z,0.63
2022-11-03T11:42:05.204Z,1.13
2022-11-03T11:44:59.509Z,0.93
2022-11-03T11:47:49.327Z,1.00
2022-11-03T11:50:31.914Z,0.90
2022-11-03T11:53:11.895Z,0.80
2022-11-03T11:55:44.018Z,1.30
2022-11-03T11:58:25.703Z,0.90
2022-11-03T12:00:58.978Z,1.93
2022-11-03T12:03:31.310Z,1.70
2022-11-03T12:05:59.519Z,0.93
2022-11-03T12:08:32.412Z,1.53
2022-11-03T12:11:03.248Z,1.47
2022-11-03T12:13:43.957Z,1.30
2022-11-03T12:16:31.571Z,1.10
2022-11-03T12:19:42.012Z,1.30
2022-11-03T12:22:12.123Z,1.10
2022-11-03T12:24:49.912Z,1.00
2022-11-03T12:27:44.486Z,1.30
2022-11-03T12:30:20.601Z,1.13
2022-11-03T12:32:51.755Z,1.27
2022-11-03T12:35:20.336Z,1.33
2022-11-03T12:37:48.517Z,1.30
2022-11-03T12:40:16.849Z,1.80
2022-11-03T12:42:44.928Z,1.07
2022-11-03T12:45:14.661Z,1.80
2022-11-03T12:47:42.702Z,1.60
2022-11-03T12:50:12.513Z,1.60
2022-11-03T12:52:40.527Z,1.80
2022-11-03T13:02:03.804Z,1.67
2022-11-03T13:05:01.361Z,1.33
2022-11-03T13:07:34.792Z,1.07
2022-11-03T13:10:11.140Z,0.93
2022-11-03T13:13:33.870Z,1.03
2022-11-03T13:16:14.733Z,1.17
2022-11-03T13:18:46.584Z,1.30
2022-11-03T13:21:27.377Z,1.20
2022-11-03T13:23:57.859Z,1.50
2022-11-03T13:26:29.508Z,1.70
2022-11-03T13:29:03.961Z,1.60
2022-11-03T13:31:35.909Z,1.73
2022-11-03T13:34:09.827Z,2.40
2022-11-03T13:36:43.146Z,1.40
2022-11-03T13:39:17.916Z,1.40
2022-11-03T13:41:46.149Z,1.87
2022-11-03T13:44:15.645Z,1.23
2022-11-03T13:46:45.650Z,2.00
2022-11-03T13:52:13.570Z,2.23
2022-11-03T14:00:29.144Z,1.80
2022-11-03T14:05:45.340Z,2.73
2022-11-03T14:08:13.392Z,2.47
2022-11-03T14:11:27.006Z,2.00
2022-11-03T14:13:54.171Z,2.30
2022-11-03T14:16:23.305Z,2.23
2022-11-03T14:18:55.889Z,2.50
2022-11-03T14:21:24.035Z,2.30
2022-11-03T14:23:52.009Z,1.80
2022-11-03T14:26:33.041Z,1.90
2022-11-03T14:29:09.756Z,2.33
2022-11-03T14:31:41.749Z,2.33
2022-11-03T14:34:10.045Z,2.03
2022-11-03T14:36:38.099Z,3.10
2022-11-03T14:39:06.138Z,3.53
2022-11-03T14:41:53.048Z,2.10
2022-11-03T14:44:26.791Z,2.27
2022-11-03T14:47:01.865Z,3.37
2022-11-03T14:50:46.488Z,3.57
2022-11-03T14:53:14.797Z,2.87
2022-11-03T14:55:42.959Z,2.20
2022-11-03T14:58:12.751Z,1.50
2022-11-03T15:00:40.788Z,1.90
2022-11-03T15:03:08.989Z,1.57
2022-11-03T15:05:45.805Z,1.47
2022-11-03T15:08:14.249Z,1.90
2022-11-03T15:10:42.992Z,1.80
2022-11-03T15:13:12.472Z,2.97
2022-11-03T15:15:41.748Z,2.13
2022-11-03T15:18:10.602Z,3.87
2022-11-03T15:20:38.903Z,2.47
2022-11-03T15:25:56.339Z,2.60
2022-11-03T15:28:26.007Z,2.30
2022-11-03T15:30:56.735Z,2.73
2022-11-03T15:33:28.116Z,2.40
2022-11-03T15:35:56.401Z,2.20
2022-11-03T15:38:24.396Z,2.33
2022-11-03T15:40:52.352Z,1.97
2022-11-03T15:43:23.102Z,2.23
2022-11-03T15:45:52.929Z,2.13
2022-11-03T15:48:21.060Z,2.07
2022-11-03T15:50:49.167Z,2.13
2022-11-03T15:53:17.128Z,2.00
2022-11-03T15:55:46.965Z,1.73
2022-11-03T15:58:15.043Z,2.43
2022-11-03T16:00:43.149Z,2.67
2022-11-03T16:03:12.874Z,2.20
2022-11-03T16:05:41.266Z,1.63
2022-11-03T16:08:09.564Z,1.70
2022-11-03T16:10:39.905Z,3.07
2022-11-03T16:13:09.662Z,1.63
2022-11-03T16:15:37.787Z,2.27
2022-11-03T16:18:06.116Z,1.83
2022-11-03T16:20:35.845Z,1.80
2022-11-03T16:23:19.953Z,2.33
2022-11-03T16:25:54.837Z,1.60
2022-11-03T16:28:26.170Z,2.43
2022-11-03T16:31:00.412Z,2.60
2022-11-03T16:33:29.151Z,2.40
2022-11-03T16:35:58.582Z,1.63
2022-11-03T16:38:30.596Z,2.50
2022-11-03T16:40:58.705Z,1.70
2022-11-03T16:43:26.804Z,1.63
2022-11-03T16:45:55.530Z,1.83
2022-11-03T16:48:23.916Z,2.20
2022-11-03T16:50:54.297Z,1.80
2022-11-03T16:53:26.427Z,2.20
2022-11-03T16:56:00.747Z,1.80
2022-11-03T16:58:29.272Z,2.37
2022-11-03T17:00:57.831Z,2.53
2022-11-03T17:03:28.471Z,1.50
2022-11-03T17:06:02.317Z,2.53
2022-11-03T17:08:51.752Z,1.80
2022-11-03T17:11:36.690Z,2.27
2022-11-03T17:14:06.387Z,2.93
2022-11-03T17:16:34.674Z,1.90
2022-11-03T17:19:02.840Z,1.50
2022-11-03T17:21:30.819Z,1.40
2022-11-03T17:24:00.653Z,1.67
2022-11-03T17:26:42.996Z,1.00
2022-11-03T17:29:17.377Z,1.03
2022-11-03T17:31:45.464Z,1.53
2022-11-03T17:34:14.563Z,3.10
2022-11-03T17:36:42.800Z,8.80
2022-11-03T17:39:16.990Z,2.80
2022-11-03T17:41:45.048Z,3.60
2022-11-03T17:44:14.168Z,13.37
2022-11-03T17:46:42.515Z,3.23
2022-11-03T17:49:10.591Z,9.07
2022-11-03T17:51:43.315Z,1.87
2022-11-03T17:54:18.659Z,6.00
2022-11-03T17:56:47.426Z,2.97
2022-11-03T17:59:17.442Z,2.07
2022-11-03T18:01:46.185Z,19.97
2022-11-03T18:06:43.602Z,3.07
2022-11-03T18:09:13.417Z,2.30
2022-11-03T18:12:00.656Z,2.40
2022-11-03T18:14:30.106Z,1.77
2022-11-03T18:17:04.117Z,4.13
2022-11-03T18:19:32.636Z,3.13
2022-11-03T18:22:01.087Z,7.27
2022-11-03T18:24:32.276Z,2.83
2022-11-03T18:27:03.570Z,2.50
2022-11-03T18:29:31.793Z,1.63
2022-11-03T18:32:01.557Z,3.03
2022-11-03T18:34:30.014Z,5.00
2022-11-03T18:36:58.576Z,3.00
2022-11-03T18:39:29.045Z,3.00
2022-11-03T18:44:51.293Z,4.23
2022-11-03T18:47:19.453Z,7.03
2022-11-03T18:49:47.912Z,9.67
2022-11-03T18:52:18.413Z,8.03
2022-11-03T18:54:50.337Z,6.60
2022-11-03T18:57:23.820Z,5.73
2022-11-03T18:59:52.531Z,9.40
2022-11-03T19:05:13.417Z,5.73
2022-11-03T19:07:43.939Z,3.60
2022-11-03T19:10:16.802Z,2.90
2022-11-03T19:12:48.481Z,4.00
2022-11-03T19:15:23.027Z,5.53
2022-11-03T19:17:56.209Z,4.03
2022-11-03T19:20:25.724Z,4.00
2022-11-03T19:22:54.281Z,3.97
2022-11-03T19:25:22.320Z,3.63
2022-11-03T19:27:51.796Z,4.40
2022-11-03T19:30:23.412Z,9.00
2022-11-03T19:32:57.870Z,10.03
2022-11-03T19:35:32.919Z,5.03
2022-11-03T19:38:04.254Z,2.90
2022-11-03T19:40:33.142Z,3.10
2022-11-03T19:43:01.543Z,2.60
2022-11-03T19:48:29.394Z,1.93
2022-11-03T19:50:57.923Z,2.13
2022-11-03T20:02:16.028Z,1.37
2022-11-03T20:10:36.620Z,2.00
2022-11-03T20:13:05.653Z,2.40
2022-11-03T20:15:41.739Z,2.60
2022-11-03T20:18:13.660Z,2.87
2022-11-03T20:20:46.626Z,2.23
2022-11-03T20:23:27.346Z,2.37
2022-11-03T20:26:04.062Z,3.33
2022-11-03T20:28:59.537Z,3.57
2022-11-03T20:31:30.516Z,7.77
2022-11-03T20:34:02.807Z,10.17
2022-11-03T20:36:33.538Z,6.00
2022-11-03T20:39:04.496Z,2.07
2022-11-03T20:41:33.095Z,11.57
2022-11-03T20:44:01.329Z,8.00
2022-11-03T20:46:48.401Z,2.27
2022-11-03T20:49:18.283Z,5.37
2022-11-03T20:51:49.241Z,2.13
2022-11-03T20:54:18.915Z,2.67
2022-11-03T20:56:47.593Z,6.27
2022-11-03T20:59:24.645Z,8.63
2022-11-03T21:01:58.940Z,5.27
2022-11-03T21:04:30.807Z,4.73
2022-11-03T21:06:58.899Z,10.47
2022-11-03T21:09:27.370Z,8.87
2022-11-03T21:11:57.297Z,6.50
2022-11-03T21:14:29.764Z,2.97
2022-11-03T21:17:15.733Z,1.97
2022-11-03T21:20:04.908Z,1.60
2022-11-03T21:22:52.044Z,3.87
2022-11-03T21:25:25.283Z,13.57
2022-11-03T21:27:54.985Z,7.80
2022-11-03T21:30:24.354Z,18.13
2022-11-03T21:32:55.824Z,9.40
2022-11-03T21:35:25.380Z,18.30
2022-11-03T21:37:56.490Z,32.17
2022-11-03T21:40:30.671Z,54.13
2022-11-03T21:43:16.260Z,30.77
2022-11-03T21:45:47.921Z,4.10
2022-11-03T21:48:33.620Z,8.63
2022-11-03T21:51:22.198Z,5.10
2022-11-03T21:54:04.609Z,7.00
2022-11-03T21:56:35.402Z,5.83
2022-11-03T22:00:23.229Z,9.33
2022-11-03T22:03:01.809Z,2.33
2022-11-03T22:05:34.555Z,2.57
2022-11-03T22:08:15.114Z,5.50
2022-11-03T22:10:48.039Z,1.30
2022-11-03T22:13:23.559Z,1.50
2022-11-03T22:20:21.545Z,1.83
2022-11-03T22:26:42.763Z,3.73
2022-11-03T22:29:28.367Z,1.20
2022-11-03T22:31:57.049Z,1.10
2022-11-03T22:35:01.053Z,1.03
2022-11-03T22:40:15.147Z,0.80
2022-11-03T22:43:28.702Z,1.03
2022-11-03T22:45:57.802Z,1.97
2022-11-03T22:48:29.698Z,0.60
2022-11-03T22:51:03.102Z,0.63
2022-11-03T22:53:51.172Z,1.53
2022-11-03T22:56:20.127Z,0.67
2022-11-03T22:58:49.953Z,1.00
2022-11-03T23:01:20.731Z,0.70
2022-11-03T23:03:50.553Z,0.80
2022-11-03T23:06:21.528Z,0.57
2022-11-03T23:08:53.023Z,1.20
2022-11-03T23:11:25.317Z,0.80
2022-11-03T23:13:58.822Z,1.53
2022-11-03T23:16:40.764Z,0.30
2022-11-03T23:19:30.903Z,0.40
2022-11-03T23:22:14.689Z,6.00
2022-11-03T23:25:01.241Z,0.50
2022-11-03T23:27:38.335Z,0.57
2022-11-03T23:30:13.114Z,0.60
2022-11-03T23:32:53.013Z,1.90
2022-11-03T23:35:25.651Z,1.20
2022-11-03T23:38:00.548Z,0.63
2022-11-03T23:40:31.894Z,0.60
2022-11-03T23:43:01.626Z,2.03
2022-11-03T23:45:51.384Z,0.80
2022-11-03T23:48:57.751Z,0.90
2022-11-03T23:51:33.302Z,1.73
2022-11-03T23:54:04.006Z,1.07
2022-11-03T23:56:53.752Z,0.30
2022-11-03T23:59:22.214Z,0.40
